Time;durP1;ratioP1;P1;durP2;ratioP2;P2;SDS_P1;SDS_P2;PMS_P1;PMS_P2;Temp;Humidity;BMP_temperature;BMP_pressure;BME280_temperature;BME280_humidity;BME280_pressure;Samples;Min_cycle;Max_cycle;Signal;HPM_P1;HPM_P2
2023/11/10 00:00:16;;;;;;;;;;;;;;;9.60;100.00;99985.98;108481;1251;73686;-63
2023/11/10 00:02:44;;;;;;;14.10;12.70;;;;;;;9.61;100.00;99984.16;108520;1251;69607;-63
2023/11/10 00:05:12;;;;;;;14.80;13.20;;;;;;;9.62;100.00;99984.48;108555;1251;72892;-64
2023/11/10 00:07:40;;;;;;;17.50;14.40;;;;;;;9.62;100.00;99977.65;108502;1251;60599;-68
2023/11/10 00:10:08;;;;;;;;;;;;;;;9.56;100.00;99978.05;108563;1254;58857;-68
2023/11/10 00:12:36;;;;;;;;;;;;;;;9.47;100.00;99979.05;108599;1252;73665;-62
2023/11/10 00:15:08;;;;;;;;;;;;;;;9.49;100.00;99984.25;108569;1251;69380;-64
2023/11/10 00:17:36;;;;;;;;;;;;;;;9.46;100.00;99985.05;108587;1254;71441;-65
2023/11/10 00:20:04;;;;;;;;;;;;;;;9.40;100.00;99992.58;108562;1253;59585;-65
2023/11/10 00:22:34;;;;;;;;;;;;;;;9.39;100.00;99987.71;108389;1251;59472;-65
2023/11/10 00:25:02;;;;;;;;;;;;;;;9.41;100.00;99986.77;108577;1251;73568;-65
2023/11/10 00:27:29;;;;;;;;;;;;;;;9.35;100.00;99987.64;108541;1254;70119;-65
2023/11/10 00:29:57;;;;;;;;;;;;;;;9.29;100.00;99984.86;108660;1251;73389;-65
2023/11/10 00:32:26;;;;;;;;;;;;;;;9.22;100.00;99981.77;108566;1251;60704;-64
2023/11/10 00:34:53;;;;;;;;;;;;;;;9.19;100.00;99981.51;108390;1254;59451;-64
2023/11/10 00:37:22;;;;;;;;;;;;;;;9.19;100.00;99985.38;108623;1251;73618;-64
2023/11/10 00:39:50;;;;;;;;;;;;;;;9.20;100.00;99985.70;108611;1251;69176;-65
2023/11/10 00:42:18;;;;;;;;;;;;;;;9.21;100.00;99983.04;108369;1251;73002;-65
2023/11/10 00:44:45;;;;;;;;;;;;;;;9.18;100.00;99986.46;108554;1251;60980;-64
2023/11/10 00:47:14;;;;;;;;;;;;;;;9.13;100.00;99987.11;108588;1251;59626;-64
2023/11/10 00:49:42;;;;;;;;;;;;;;;9.11;100.00;99987.71;108629;1251;73682;-66
2023/11/10 00:52:10;;;;;;;;;;;;;;;9.12;100.00;99991.00;108603;1253;70429;-64
2023/11/10 00:54:37;;;;;;;;;;;;;;;9.16;100.00;99986.88;108526;1251;72403;-64
2023/11/10 00:57:05;;;;;;;;;;;;;;;9.15;100.00;99986.89;108540;1251;60709;-65
2023/11/10 00:59:33;;;;;;;;;;;;;;;9.10;100.00;99984.25;108566;1253;59438;-66
2023/11/10 01:02:00;;;;;;;;;;;;;;;9.10;100.00;99981.63;108609;1251;73580;-66
2023/11/10 01:04:29;;;;;;;;;;;;;;;9.09;100.00;99981.30;108694;1251;69931;-65
2023/11/10 01:06:56;;;;;;;;;;;;;;;9.09;100.00;99981.83;108592;1251;73174;-64
2023/11/10 01:09:24;;;;;;;;;;;;;;;9.08;100.00;99984.31;108400;1253;60685;-65
2023/11/10 01:11:52;;;;;;;;;;;;;;;9.06;100.00;99986.83;108517;1256;59826;-64
2023/11/10 01:14:21;;;;;;;;;;;;;;;9.01;100.00;99981.73;108472;1251;74475;-64
2023/11/10 01:16:48;;;;;;;;;;;;;;;8.99;100.00;99980.58;108441;1253;69777;-64
2023/11/10 01:19:16;;;;;;;;;;;;;;;9.01;100.00;99980.15;108414;1251;72539;-65
2023/11/10 01:21:46;;;;;;;;;;;;;;;9.01;100.00;99972.80;108517;1254;60518;-64
2023/11/10 01:24:16;;;;;;;;;;;;;;;8.95;100.00;99975.08;108573;1254;59454;-68
2023/11/10 01:26:44;;;;;;;;;;;;;;;8.89;100.00;99988.03;108581;1251;73762;-65
2023/11/10 01:29:11;;;;;;;;;;;;;;;8.90;100.00;99981.02;108390;1251;70366;-64
2023/11/10 01:31:39;;;;;;;;;;;;;;;8.91;100.00;99986.75;108546;1251;71370;-64
2023/11/10 01:34:06;;;;;;;;;;;;;;;8.90;100.00;99987.64;108622;1251;59696;-63
2023/11/10 01:36:34;;;;;;;;;;;;;;;8.86;100.00;99983.42;108550;1251;59544;-64
2023/11/10 01:39:05;;;;;;;;;;;;;;;8.88;100.00;99979.86;108549;1251;73735;-63
2023/11/10 01:41:37;;;;;;;;;;;;;;;8.86;100.00;99982.19;108553;1251;69051;-64
2023/11/10 01:44:05;;;;;;;;;;;;;;;8.89;100.00;99978.58;108644;1251;71182;-63
2023/11/10 01:46:32;;;;;;;;;;;;;;;8.90;100.00;99981.19;108564;1251;60854;-64
2023/11/10 01:49:00;;;;;;;;;;;;;;;8.89;100.00;99982.64;108562;1251;59637;-64
2023/11/10 01:51:30;;;;;;;;;;;;;;;8.98;100.00;99981.13;108392;1251;73689;-63
2023/11/10 01:53:58;;;;;;;;;;;;;;;9.05;100.00;99978.80;108397;1254;69138;-64
2023/11/10 01:56:26;;;;;;;;;;;;;;;9.06;100.00;99975.63;108347;1251;72891;-63
2023/11/10 01:58:53;;;;;;;;;;;;;;;9.09;100.00;99977.82;108155;1254;61591;-64
2023/11/10 02:01:21;;;;;;;;;;;;;;;9.04;100.00;99977.63;108273;1251;59690;-63
2023/11/10 02:03:49;;;;;;;;;;;;;;;8.99;100.00;99978.82;108375;1251;73718;-63
2023/11/10 02:06:17;;;;;;;;;;;;;;;9.00;100.00;99980.02;108489;1251;69675;-63
2023/11/10 02:08:44;;;;;;;;;;;;;;;8.96;100.00;99980.83;108386;1251;384752;-65
2023/11/10 02:12:08;;;;;;;14.20;11.70;;;;;;;8.40;100.00;99985.21;101438;1293;602605;-62
2023/11/10 02:14:36;;;;;;;13.30;12.00;;;;;;;8.85;100.00;99980.98;103575;1277;61257;-63
2023/11/10 02:17:05;;;;;;;15.60;12.30;;;;;;;8.85;100.00;99980.98;103623;1267;59699;-63
2023/11/10 02:19:33;;;;;;;13.80;12.30;;;;;;;8.78;100.00;99978.25;103637;1272;72420;-62
2023/11/10 02:22:02;;;;;;;13.40;12.20;;;;;;;8.74;100.00;99981.84;103434;1267;69822;-64
2023/11/10 02:24:30;;;;;;;15.30;12.40;;;;;;;8.74;100.00;99979.93;104001;1277;71650;-63
2023/11/10 02:26:57;;;;;;;;;;;;;;;8.72;100.00;99979.10;103973;1258;206749;-64
2023/11/10 02:29:25;;;;;;;;;;;;;;;8.66;100.00;99978.43;104041;1258;59350;-63
2023/11/10 02:31:54;;;;;;;12.90;11.60;;;;;;;8.53;100.00;99978.80;104240;1257;71984;-63
2023/11/10 02:34:23;;;;;;;13.20;11.90;;;;;;;8.43;100.00;99980.13;104209;1262;69567;-65
2023/11/10 02:36:51;;;;;;;14.20;12.80;;;;;;;8.45;100.00;99980.07;104331;1268;71394;-63
2023/11/10 02:39:19;;;;;;;13.40;12.20;;;;;;;8.46;100.00;99977.61;104008;1257;60681;-64
2023/11/10 02:41:48;;;;;;;14.10;12.70;;;;;;;8.40;100.00;99975.83;104232;1258;60287;-64
2023/11/10 02:44:15;;;;;;;13.20;11.70;;;;;;;8.30;100.00;99978.38;104066;1262;73279;-63
2023/11/10 02:46:43;;;;;;;13.50;12.10;;;;;;;8.24;100.00;99977.14;104119;1261;69992;-63
2023/11/10 02:49:11;;;;;;;15.50;12.90;;;;;;;8.16;100.00;99977.18;104317;1254;72504;-63
2023/11/10 02:51:39;;;;;;;14.20;12.20;;;;;;;8.16;100.00;99978.05;104045;1262;61611;-63
2023/11/10 02:54:07;;;;;;;15.20;12.70;;;;;;;8.18;100.00;99980.79;104553;1260;59717;-63
2023/11/10 02:56:35;;;;;;;14.40;12.50;;;;;;;8.14;100.00;99978.46;104098;1259;73708;-63
2023/11/10 02:59:03;;;;;;;;;;;;;;;8.08;100.00;99974.09;104397;1257;68064;-63
2023/11/10 03:01:31;;;;;;;18.20;12.20;;;;;;;8.09;100.00;99977.36;104326;1269;72349;-65
2023/11/10 03:03:59;;;;;;;;;;;;;;;8.06;100.00;99980.95;104241;1257;60651;-63
2023/11/10 03:06:27;;;;;;;13.70;11.60;;;;;;;8.00;100.00;99979.88;104316;1254;59679;-63
2023/11/10 03:08:55;;;;;;;15.00;11.90;;;;;;;7.95;100.00;99975.30;105164;1253;72734;-63
2023/11/10 03:11:24;;;;;;;13.80;11.60;;;;;;;7.87;100.00;99970.64;107748;1253;69390;-63
2023/11/10 03:13:54;;;;;;;13.10;11.20;;;;;;;7.86;100.00;99971.02;106148;1261;73291;-64
2023/11/10 03:16:23;;;;;;;12.10;11.00;;;;;;;7.85;100.00;99969.13;104777;1256;61020;-63
2023/11/10 03:18:53;;;;;;;;;;;;;;;7.86;100.00;99960.01;104431;1261;59433;-63
2023/11/10 03:21:23;;;;;;;12.90;10.70;;;;;;;7.87;100.00;99961.39;104681;1257;73712;-62
2023/11/10 03:23:51;;;;;;;11.20;10.00;;;;;;;7.85;100.00;99956.21;104417;1260;70201;-61
2023/11/10 03:26:19;;;;;;;;;;;;;;;7.89;100.00;99957.49;104227;1277;72131;-62
2023/11/10 03:28:47;;;;;;;12.10;10.90;;;;;;;7.94;100.00;99958.56;104238;1257;60584;-62
2023/11/10 03:31:16;;;;;;;11.90;10.60;;;;;;;7.98;100.00;99960.59;104405;1256;60049;-62
2023/11/10 03:33:46;;;;;;;11.40;10.30;;;;;;;8.00;100.00;99961.36;104349;1257;72724;-62
2023/11/10 03:36:15;;;;;;;11.40;10.20;;;;;;;8.06;100.00;99963.14;104090;1261;70147;-62
2023/11/10 03:38:43;;;;;;;12.20;11.10;;;;;;;8.09;100.00;99962.20;104323;1261;72500;-66
2023/11/10 03:41:13;;;;;;;11.60;10.50;;;;;;;8.14;100.00;99970.25;104341;1261;60628;-62
2023/11/10 03:43:41;;;;;;;12.10;10.90;;;;;;;8.15;100.00;99966.39;104312;1261;60877;-65
2023/11/10 03:46:10;;;;;;;11.40;10.10;;;;;;;8.16;100.00;99967.75;104193;1260;73004;-61
2023/11/10 03:48:39;;;;;;;10.90;9.90;;;;;;;8.21;100.00;99967.96;104133;1260;68008;-63
2023/11/10 03:51:10;;;;;;;11.90;10.80;;;;;;;8.19;100.00;99967.33;104335;1261;72447;-60
2023/11/10 03:53:42;;;;;;;12.40;10.60;;;;;;;8.10;100.00;99966.52;104322;1260;60726;-62
2023/11/10 03:56:10;;;;;;;10.90;9.80;;;;;;;8.05;100.00;99964.23;104163;1262;59795;-64
2023/11/10 03:58:38;;;;;;;;;;;;;;;8.00;100.00;99966.63;104368;1261;71875;-64
2023/11/10 04:01:11;;;;;;;10.70;9.60;;;;;;;7.98;100.00;99969.98;104259;1260;70047;-63
2023/11/10 04:03:41;;;;;;;12.00;10.80;;;;;;;8.04;100.00;99965.47;104218;1262;71644;-65
2023/11/10 04:06:09;;;;;;;12.60;10.70;;;;;;;8.03;100.00;99968.47;104176;1269;61593;-63
2023/11/10 04:08:37;;;;;;;;;;;;;;;7.97;100.00;99965.64;104460;1260;59621;-62
2023/11/10 04:11:05;;;;;;;10.80;9.60;;;;;;;7.94;100.00;99965.38;104663;1262;72929;-62
2023/11/10 04:13:33;;;;;;;11.60;10.50;;;;;;;7.90;100.00;99964.77;104318;1262;69296;-63
2023/11/10 04:16:01;;;;;;;11.80;10.60;;;;;;;7.90;100.00;99968.62;104203;1257;72367;-63
2023/11/10 04:18:29;;;;;;;13.10;10.50;;;;;;;7.91;100.00;99965.11;104270;1257;60646;-63
2023/11/10 04:20:56;;;;;;;11.90;10.70;;;;;;;7.91;100.00;99973.66;104162;1260;59381;-62
2023/11/10 04:23:25;;;;;;;14.90;9.90;;;;;;;7.87;100.00;99973.95;104267;1260;73465;-64
2023/11/10 04:25:52;;;;;;;11.90;10.70;;;;;;;7.87;100.00;99975.69;104307;1261;69180;-62
2023/11/10 04:28:21;;;;;;;12.20;10.50;;;;;;;7.93;100.00;99972.05;104292;1274;72344;-62
2023/11/10 04:30:48;;;;;;;12.20;10.90;;;;;;;7.88;100.00;99974.26;104342;1254;60540;-63
2023/11/10 04:33:16;;;;;;;11.40;10.30;;;;;;;7.79;100.00;99975.38;104292;1255;59825;-63
2023/11/10 04:35:44;;;;;;;;;;;;;;;7.72;100.00;99978.69;104281;1277;73643;-64
2023/11/10 04:38:13;;;;;;;12.90;10.40;;;;;;;7.75;100.00;99975.65;104339;1260;69045;-62
2023/11/10 04:40:40;;;;;;;12.40;11.20;;;;;;;7.73;100.00;99976.39;104240;1260;73343;-64
2023/11/10 04:43:09;;;;;;;;;;;;;;;7.71;100.00;99973.67;104321;1260;60931;-62
2023/11/10 04:45:37;;;;;;;23.00;17.40;;;;;;;7.68;100.00;99975.14;104241;1263;59491;-62
2023/11/10 04:48:05;;;;;;;;;;;;;;;7.66;100.00;99977.11;104241;1260;73570;-63
2023/11/10 04:50:33;;;;;;;;;;;;;;;7.60;100.00;99974.81;104242;1262;69133;-63
2023/11/10 04:53:03;;;;;;;12.60;11.30;;;;;;;7.54;100.00;99978.96;104131;1268;72492;-62
2023/11/10 04:55:32;;;;;;;13.30;11.70;;;;;;;7.53;100.00;99982.33;104334;1260;60894;-63
2023/11/10 04:58:00;;;;;;;13.90;12.50;;;;;;;7.49;100.00;99978.76;104312;1266;59688;-62
2023/11/10 05:00:28;;;;;;;12.40;11.00;;;;;;;7.47;100.00;99974.96;104269;1257;73718;-61
2023/11/10 05:02:57;;;;;;;;;;;;;;;7.48;100.00;99974.78;104253;1268;69122;-60
2023/11/10 05:05:25;;;;;;;11.40;10.10;;;;;;;7.46;100.00;99978.13;104231;1256;72343;-62
2023/11/10 05:07:52;;;;;;;11.90;10.60;;;;;;;7.48;100.00;99976.17;105203;1257;61695;-64
2023/11/10 05:10:20;;;;;;;11.50;10.00;;;;;;;7.50;100.00;99980.84;105300;1254;62362;-63
2023/11/10 05:12:48;;;;;;;12.30;11.10;;;;;;;7.53;100.00;99979.69;107738;1256;73320;-64
2023/11/10 05:15:16;;;;;;;13.40;10.80;;;;;;;7.60;100.00;99983.54;107780;1256;69656;-65
2023/11/10 05:17:44;;;;;;;10.60;9.50;;;;;;;7.65;100.00;99986.55;107789;1257;73322;-65
2023/11/10 05:20:12;;;;;;;;;;;;;;;7.70;100.00;99981.00;107839;1256;61080;-64
2023/11/10 05:22:41;;;;;;;11.00;9.90;;;;;;;7.72;100.00;99983.59;107861;1256;58481;-64
2023/11/10 05:25:13;;;;;;;11.70;9.30;;;;;;;7.75;100.00;99985.77;106048;1262;73688;-62
2023/11/10 05:27:40;;;;;;;12.10;10.40;;;;;;;7.76;100.00;99992.39;104134;1256;69842;-64
2023/11/10 05:30:12;;;;;;;11.70;10.30;;;;;;;7.84;100.00;99993.23;104182;1261;72511;-63
2023/11/10 05:32:40;;;;;;;11.60;10.40;;;;;;;7.86;100.00;99995.09;104207;1258;60976;-64
2023/11/10 05:35:08;;;;;;;12.50;10.30;;;;;;;7.86;100.00;99994.05;104368;1256;60096;-63
2023/11/10 05:37:36;;;;;;;11.00;9.90;;;;;;;7.87;100.00;99995.95;104383;1270;72847;-64
2023/11/10 05:40:05;;;;;;;;;;;;;;;7.87;100.00;99998.04;104213;1267;70674;-64
2023/11/10 05:42:33;;;;;;;11.50;9.10;;;;;;;7.89;100.00;99995.55;104047;1262;72892;-62
2023/11/10 05:45:01;;;;;;;10.80;9.60;;;;;;;7.94;100.00;100000.27;104103;1260;61593;-64
2023/11/10 05:47:32;;;;;;;10.20;9.20;;;;;;;7.99;100.00;99992.48;104028;1273;59813;-64
2023/11/10 05:50:00;;;;;;;14.90;10.10;;;;;;;8.05;100.00;99993.36;104149;1262;72682;-64
2023/11/10 05:52:30;;;;;;;11.30;10.10;;;;;;;8.17;100.00;99993.92;104254;1262;69452;-64
2023/11/10 05:55:02;;;;;;;11.50;10.30;;;;;;;8.25;100.00;99996.66;103933;1280;72420;-68
2023/11/10 05:57:30;;;;;;;11.60;10.20;;;;;;;8.27;100.00;99996.63;103957;1264;61516;-62
2023/11/10 05:59:58;;;;;;;15.60;9.70;;;;;;;8.28;100.00;99997.12;104014;1258;60360;-61
2023/11/10 06:02:26;;;;;;;;;;;;;;;8.32;100.00;99995.77;104042;1258;73755;-62
2023/11/10 06:04:53;;;;;;;10.50;9.40;;;;;;;8.40;100.00;99993.47;104050;1262;68561;-62
2023/11/10 06:07:21;;;;;;;12.50;9.80;;;;;;;8.48;100.00;99991.33;104200;1267;72336;-63
2023/11/10 06:09:49;;;;;;;11.70;10.50;;;;;;;8.55;100.00;100000.23;104328;1258;60993;-63
2023/11/10 06:12:17;;;;;;;11.10;10.00;;;;;;;8.58;100.00;99997.34;104244;1262;59759;-63
2023/11/10 06:14:45;;;;;;;12.10;9.50;;;;;;;8.63;100.00;100000.36;104652;1262;72929;-64
2023/11/10 06:17:13;;;;;;;;;;;;;;;8.65;100.00;100002.04;104011;1278;69177;-62
2023/11/10 06:19:41;;;;;;;;;;;;;;;8.69;100.00;99999.47;104457;1260;72475;-64
2023/11/10 06:22:11;;;;;;;12.00;9.50;;;;;;;8.71;100.00;99999.75;103957;1264;60932;-66
2023/11/10 06:24:39;;;;;;;11.10;9.80;;;;;;;8.77;100.00;100001.67;104090;1262;60602;-66
2023/11/10 06:27:07;;;;;;;12.00;10.70;;;;;;;8.83;100.00;100005.51;104262;1262;73686;-66
2023/11/10 06:29:35;;;;;;;10.10;8.90;;;;;;;8.87;100.00;99994.73;104000;1273;69149;-67
2023/11/10 06:32:04;;;;;;;13.10;9.70;;;;;;;8.91;100.00;99996.73;104086;1272;73370;-65
2023/11/10 06:34:32;;;;;;;11.30;10.20;;;;;;;8.91;100.00;99993.57;104046;1257;61022;-64
2023/11/10 06:37:01;;;;;;;;;;;;;;;8.98;100.00;99991.09;104172;1262;60713;-66
2023/11/10 06:39:29;;;;;;;9.50;8.50;;;;;;;9.07;100.00;99991.69;104470;1259;73529;-66
2023/11/10 06:41:58;;;;;;;10.20;9.20;;;;;;;9.09;100.00;99984.27;104334;1268;70410;-65
2023/11/10 06:44:26;;;;;;;11.80;9.60;;;;;;;9.19;100.00;99989.41;104269;1262;72534;-66
2023/11/10 06:46:54;;;;;;;10.30;9.20;;;;;;;9.25;100.00;99988.50;104287;1272;60737;-65
2023/11/10 06:49:22;;;;;;;10.10;9.10;;;;;;;9.33;100.00;99983.52;104280;1262;59953;-65
2023/11/10 06:51:49;;;;;;;10.40;8.30;;;;;;;9.38;100.00;99979.70;104170;1263;74051;-64
2023/11/10 06:54:17;;;;;;;;;;;;;;;9.44;100.00;99979.30;104454;1262;69476;-64
2023/11/10 06:56:45;;;;;;;;;;;;;;;9.50;100.00;99974.91;104337;1268;71542;-65
2023/11/10 06:59:12;;;;;;;;;;;;;;;9.55;100.00;99978.09;104339;1259;60711;-66
2023/11/10 07:01:42;;;;;;;8.30;7.20;;;;;;;9.62;100.00;99972.08;104450;1256;60518;-66
2023/11/10 07:04:10;;;;;;;10.40;7.50;;;;;;;9.68;100.00;99971.86;104186;1259;73654;-65
2023/11/10 07:06:38;;;;;;;9.90;8.60;;;;;;;9.75;100.00;99973.54;104363;1269;70161;-65
2023/11/10 07:09:07;;;;;;;8.50;7.70;;;;;;;9.83;100.00;99975.57;104183;1276;74397;-64
2023/11/10 07:11:35;;;;;;;9.60;7.70;;;;;;;9.85;100.00;99978.63;106427;1256;60661;-64
2023/11/10 07:14:03;;;;;;;9.30;7.50;;;;;;;9.92;100.00;99972.96;105290;1254;60768;-65
2023/11/10 07:16:31;;;;;;;8.20;7.40;;;;;;;9.99;100.00;99973.08;105880;1253;73632;-65
2023/11/10 07:18:59;;;;;;;8.40;7.00;;;;;;;10.09;100.00;99973.96;104360;1275;69173;-64
2023/11/10 07:21:29;;;;;;;8.40;7.50;;;;;;;10.15;100.00;99969.34;104325;1258;72330;-65
2023/11/10 07:24:00;;;;;;;9.80;7.70;;;;;;;10.21;100.00;99967.77;104701;1258;60698;-65
2023/11/10 07:26:27;;;;;;;8.70;7.60;;;;;;;10.29;100.00;99966.77;104399;1259;60553;-65
2023/11/10 07:28:59;;;;;;;7.50;6.80;;;;;;;10.36;100.00;99965.48;104467;1267;73720;-65
2023/11/10 07:31:27;;;;;;;8.10;6.60;;;;;;;10.45;100.00;99965.15;104301;1257;69205;-65
2023/11/10 07:33:55;;;;;;;7.70;6.60;;;;;;;10.55;100.00;99958.65;104342;1259;71810;-64
2023/11/10 07:36:23;;;;;;;6.70;5.80;;;;;;;10.65;100.00;99956.33;104349;1271;60639;-65
2023/11/10 07:38:51;;;;;;;9.50;6.90;;;;;;;10.75;100.00;99955.80;104363;1257;60766;-66
2023/11/10 07:41:19;;;;;;;7.30;6.10;;;;;;;10.85;100.00;99955.23;104366;1267;72494;-65
2023/11/10 07:43:47;;;;;;;6.80;6.00;;;;;;;10.94;100.00;99947.70;104336;1267;68280;-66
2023/11/10 07:46:15;;;;;;;;;;;;;;;11.02;100.00;99950.70;104400;1272;72397;-66
2023/11/10 07:48:43;;;;;;;9.40;5.70;;;;;;;11.10;100.00;99949.17;104275;1254;60665;-65
2023/11/10 07:51:11;;;;;;;7.20;6.30;;;;;;;11.18;100.00;99949.88;104473;1259;61765;-65
2023/11/10 07:53:39;;;;;;;7.70;6.00;;;;;;;11.27;100.00;99951.81;104361;1276;73548;-65
2023/11/10 07:56:07;;;;;;;6.20;5.60;;;;;;;11.35;100.00;99948.48;104336;1271;69603;-66
2023/11/10 07:58:37;;;;;;;7.30;6.00;;;;;;;11.46;100.00;99952.42;104274;1275;73349;-67
2023/11/10 08:01:05;;;;;;;5.60;5.20;;;;;;;11.55;100.00;99955.20;104451;1254;60980;-66
2023/11/10 08:03:40;;;;;;;7.30;5.70;;;;;;;11.66;100.00;99953.01;104415;1257;60562;-65
2023/11/10 08:06:11;;;;;;;9.60;6.10;;;;;;;11.76;100.00;99947.50;104257;1253;73618;-65
2023/11/10 08:08:39;;;;;;;6.10;5.30;;;;;;;11.86;100.00;99948.64;104395;1259;69009;-65
2023/11/10 08:11:11;;;;;;;;;;;;;;;12.00;100.00;99950.16;104349;1257;72233;-67
2023/11/10 08:13:39;;;;;;;8.30;6.20;;;;;;;12.12;100.00;99951.93;106300;1258;61501;-69
2023/11/10 08:16:07;;;;;;;6.20;5.50;;;;;;;12.20;100.00;99950.36;105907;1254;60650;-67
2023/11/10 08:18:35;;;;;;;9.50;7.80;;;;;;;12.29;100.00;99946.96;104354;1273;74053;-67
2023/11/10 08:21:03;;;;;;;;;;;;;;;12.39;100.00;99948.42;104536;1254;69277;-68
2023/11/10 08:23:31;;;;;;;6.40;4.90;;;;;;;12.49;100.00;99939.89;104422;1255;72379;-68
2023/11/10 08:25:59;;;;;;;5.10;4.60;;;;;;;12.60;100.00;99942.53;104381;1257;60639;-65
2023/11/10 08:28:27;;;;;;;6.70;4.60;;;;;;;12.73;100.00;99936.34;104484;1260;60672;-66
2023/11/10 08:30:55;;;;;;;;;;;;;;;12.79;100.00;99938.65;104426;1259;72692;-66
2023/11/10 08:33:26;;;;;;;4.60;4.20;;;;;;;12.85;100.00;99937.52;104417;1260;69182;-67
2023/11/10 08:35:54;;;;;;;5.30;4.20;;;;;;;12.90;100.00;99934.10;104521;1253;72572;-67
2023/11/10 08:38:23;;;;;;;6.40;4.40;;;;;;;12.98;100.00;99932.52;104233;1271;60645;-69
2023/11/10 08:40:52;;;;;;;4.90;4.40;;;;;;;13.00;100.00;99933.45;104447;1257;60546;-70
2023/11/10 08:43:20;;;;;;;5.30;4.80;;;;;;;13.08;100.00;99924.27;104317;1260;74011;-69
2023/11/10 08:45:48;;;;;;;5.40;4.90;;;;;;;13.14;100.00;99924.17;104491;1254;69170;-69
2023/11/10 08:48:15;;;;;;;5.90;5.10;;;;;;;13.19;100.00;99914.92;104347;1257;73012;-67
2023/11/10 08:50:44;;;;;;;5.00;4.50;;;;;;;13.18;100.00;99915.31;104526;1255;61390;-67
2023/11/10 08:53:12;;;;;;;5.50;4.90;;;;;;;13.26;100.00;99906.89;104476;1274;60557;-71
2023/11/10 08:55:40;;;;;;;5.40;4.90;;;;;;;13.36;100.00;99906.92;104403;1260;73692;-69
2023/11/10 08:58:07;;;;;;;4.90;4.30;;;;;;;13.39;100.00;99901.45;104352;1275;70015;-69
2023/11/10 09:00:36;;;;;;;4.70;4.30;;;;;;;13.44;100.00;99901.77;104432;1257;75985;-67
2023/11/10 09:03:06;;;;;;;4.90;4.40;;;;;;;13.43;100.00;99896.49;104560;1254;60841;-68
2023/11/10 09:05:34;;;;;;;4.90;4.40;;;;;;;13.49;100.00;99896.05;104384;1257;60519;-67
2023/11/10 09:08:02;;;;;;;6.30;4.80;;;;;;;13.51;100.00;99889.96;104612;1254;76670;-68
2023/11/10 09:10:30;;;;;;;4.80;4.40;;;;;;;13.56;100.00;99891.11;104358;1258;69236;-67
2023/11/10 09:12:58;;;;;;;4.60;4.10;;;;;;;13.60;100.00;99887.56;107693;1254;73023;-68
2023/11/10 09:15:25;;;;;;;3.90;3.60;;;;;;;13.68;100.00;99886.27;107803;1254;60566;-67
2023/11/10 09:17:53;;;;;;;4.20;3.80;;;;;;;13.73;100.00;99882.86;105076;1257;60436;-68
2023/11/10 09:20:21;;;;;;;5.80;4.10;;;;;;;13.79;100.00;99878.84;104485;1258;73087;-66
2023/11/10 09:22:49;;;;;;;4.60;4.20;;;;;;;13.86;100.00;99881.64;104731;1254;69395;-67
2023/11/10 09:25:20;;;;;;;4.20;3.90;;;;;;;13.98;99.99;99879.05;104787;1275;72586;-67
2023/11/10 09:27:48;;;;;;;3.70;3.40;;;;;;;14.11;100.00;99876.78;104534;1253;62392;-66
2023/11/10 09:30:16;;;;;;;;;;;;;;;14.24;100.00;99873.98;104488;1260;60772;-65
2023/11/10 09:32:44;;;;;;;;;;;;;;;14.34;98.75;99874.84;104406;1267;73014;-65
2023/11/10 09:35:14;;;;;;;4.40;3.30;;;;;;;14.42;98.46;99872.11;104313;1258;69009;-63
2023/11/10 09:37:46;;;;;;;6.40;3.40;;;;;;;14.54;98.35;99871.30;104335;1257;72405;-65
2023/11/10 09:40:15;;;;;;;4.60;3.80;;;;;;;14.69;96.24;99868.37;104326;1270;62489;-64
2023/11/10 09:42:43;;;;;;;3.30;3.00;;;;;;;14.76;95.49;99869.39;104460;1260;60787;-66
2023/11/10 09:45:15;;;;;;;4.90;3.20;;;;;;;14.90;95.43;99860.65;104182;1270;73603;-65
2023/11/10 09:47:45;;;;;;;3.90;3.40;;;;;;;15.06;93.99;99859.40;104338;1261;68390;-67
2023/11/10 09:50:13;;;;;;;3.50;3.10;;;;;;;15.16;92.49;99854.56;104441;1257;72402;-67
2023/11/10 09:52:41;;;;;;;4.60;3.40;;;;;;;15.27;91.49;99849.00;104427;1269;63883;-68
2023/11/10 09:55:10;;;;;;;3.60;3.30;;;;;;;15.32;90.68;99844.61;104337;1275;60545;-64
2023/11/10 09:57:38;;;;;;;4.00;3.40;;;;;;;15.37;89.89;99847.48;104558;1264;73738;-67
2023/11/10 10:00:12;;;;;;;4.10;3.20;;;;;;;15.45;89.27;99839.05;104872;1258;70267;-66
2023/11/10 10:02:41;;;;;;;3.40;3.10;;;;;;;15.57;89.03;99831.96;104442;1257;72710;-65
2023/11/10 10:05:09;;;;;;;3.40;3.10;;;;;;;15.68;88.00;99835.56;104337;1254;62320;-63
2023/11/10 10:07:38;;;;;;;;;;;;;;;15.73;87.48;99827.48;104593;1259;60570;-64
2023/11/10 10:10:10;;;;;;;3.10;2.80;;;;;;;15.76;87.73;99823.08;104960;1253;75807;-64
2023/11/10 10:12:38;;;;;;;3.60;3.30;;;;;;;15.81;86.23;99820.33;104283;1266;68476;-62
2023/11/10 10:15:07;;;;;;;3.80;3.00;;;;;;;15.75;86.53;99804.27;106553;1255;75090;-67
2023/11/10 10:17:38;;;;;;;3.80;3.30;;;;;;;15.79;86.90;99808.58;105583;1252;61844;-66
2023/11/10 10:20:13;;;;;;;3.60;3.30;;;;;;;15.81;86.61;99803.33;105198;1254;60620;-64
2023/11/10 10:22:48;;;;;;;2.60;2.40;;;;;;;15.85;86.55;99805.02;108143;1254;73593;-63
2023/11/10 10:25:19;;;;;;;3.70;3.00;;;;;;;15.89;86.59;99800.55;105820;1254;69337;-63
2023/11/10 10:27:47;;;;;;;3.60;3.30;;;;;;;15.91;85.43;99797.98;104560;1270;73654;-63
2023/11/10 10:30:17;;;;;;;4.60;3.90;;;;;;;15.92;84.08;99797.19;105719;1255;60527;-63
2023/11/10 10:32:46;;;;;;;5.80;3.00;;;;;;;15.93;83.06;99793.95;104594;1254;60435;-64
2023/11/10 10:35:15;;;;;;;4.50;3.20;;;;;;;15.96;82.01;99786.34;104643;1258;73986;-63
2023/11/10 10:37:43;;;;;;;3.20;2.90;;;;;;;15.95;80.71;99791.69;104372;1267;69631;-62
2023/11/10 10:40:13;;;;;;;;;;;;;;;15.90;78.80;99784.05;104532;1264;73278;-62
2023/11/10 10:42:43;;;;;;;4.60;3.60;;;;;;;15.91;80.41;99783.42;104538;1253;61506;-63
2023/11/10 10:45:11;;;;;;;6.20;3.90;;;;;;;15.92;79.28;99782.68;104848;1254;60784;-63
2023/11/10 10:47:39;;;;;;;;;;;;;;;15.95;78.36;99781.09;104573;1255;74074;-64
2023/11/10 10:50:09;;;;;;;3.30;2.60;;;;;;;16.02;77.44;99778.88;104646;1253;69070;-63
2023/11/10 10:52:37;;;;;;;2.90;2.70;;;;;;;16.09;78.04;99779.81;104412;1254;73194;-64
2023/11/10 10:55:05;;;;;;;4.30;3.40;;;;;;;16.12;77.13;99777.19;104577;1253;62564;-66
2023/11/10 10:57:34;;;;;;;2.80;2.60;;;;;;;16.09;76.20;99777.19;104422;1253;60486;-64
2023/11/10 11:00:05;;;;;;;3.80;3.10;;;;;;;16.04;75.58;99780.67;104357;1254;74693;-64
2023/11/10 11:02:34;;;;;;;3.00;2.70;;;;;;;16.07;75.76;99773.13;104709;1255;69552;-64
2023/11/10 11:05:20;;;;;;;6.30;3.00;;;;;;;16.15;74.94;99773.10;104666;1255;72887;-62
2023/11/10 11:08:29;;;;;;;2.30;2.10;;;;;;;16.23;74.97;99774.18;104447;1267;61501;-64
2023/11/10 11:11:25;;;;;;;3.40;2.50;;;;;;;16.37;74.69;99764.61;104025;1266;60794;-63
2023/11/10 11:14:30;;;;;;;5.00;2.30;;;;;;;16.46;73.95;99770.38;107843;1254;73629;-65
2023/11/10 11:17:28;;;;;;;2.90;2.30;;;;;;;16.58;73.53;99769.63;106843;1254;70406;-64
2023/11/10 11:19:56;;;;;;;2.60;2.40;;;;;;;16.57;73.14;99768.98;104912;1260;72969;-64
2023/11/10 11:22:24;;;;;;;2.90;2.60;;;;;;;16.55;72.58;99769.80;104537;1260;63000;-63
2023/11/10 11:24:52;;;;;;;2.10;2.00;;;;;;;16.57;72.39;99769.00;104469;1254;60448;-63
2023/11/10 11:27:20;;;;;;;;;;;;;;;16.55;72.63;99769.45;104651;1256;74647;-62
2023/11/10 11:29:55;;;;;;;2.80;2.30;;;;;;;16.45;71.41;99769.59;104560;1256;69580;-61
2023/11/10 11:32:25;;;;;;;4.20;2.60;;;;;;;16.37;72.21;99763.38;104619;1264;73672;-61
2023/11/10 11:34:54;;;;;;;2.80;2.50;;;;;;;16.35;72.20;99764.24;104187;1271;60630;-62
2023/11/10 11:37:22;;;;;;;2.40;2.20;;;;;;;16.26;70.78;99762.31;104431;1260;60109;-63
2023/11/10 11:39:55;;;;;;;3.00;2.60;;;;;;;16.15;70.51;99765.89;104333;1267;73836;-63
2023/11/10 11:42:23;;;;;;;4.70;2.20;;;;;;;16.07;70.35;99762.46;104197;1261;70195;-63
2023/11/10 11:44:57;;;;;;;2.90;2.00;;;;;;;16.09;71.18;99766.74;104181;1272;73860;-63